Gagetown, Canada
Current Conditions -  °F | °C
As of 11:00 AM on Thursday 23 Oct 2014 (Local Time) from CYCX Reporting Station
Drizzle Drizzle  
Wind Chill: 43°   Ceiling: 600
Heat Index: 48°   Visibility: 12mi
Dew Point: 48°   Wind: 13mph
Humidity: 100%   Direction: 50°NE
Pressure: 30.09"   Gusts: 23mph
Location:  45.77°N, 66.15°W
Report Text: CYCX 231400Z 05011G20KT 12SM -DZ OVC006 09/09 A3009 RMK SF8DA-524FT SLP191
Loading
Personal Weather Stations






























Interactive Weather Map
Tropical Storm Tracking
New forecast layout! Learn more

10-Day Weather Forecast

Advertisements
Track Severe Weather on mobile